Terminal Aerodrome Forecast
Issued by NWS

Home | Current Version | Previous Version | Text Only | Print | Product List | Glossary On
Versions: 1 2 3 4 5 6 7 8 9 10 11 12 13 14 15 16 17 18 19 20
000
FTUS41 KOKX 031758
TAFSWF
TAF
KSWF 031758Z 0318/0424 06006KT 2SM -RA BR OVC009
     FM032000 05004KT 4SM BR OVC010
     FM040300 VRB03KT 4SM BR OVC008
     FM041400 VRB05KT 4SM -SHRA BR OVC010
      AMD NOT SKED=

USA.gov is the U.S. government's official web portal to all federal, state and local government web resources and services.